Portada
METAR-TAF:

METAR-TAF

Aeroports :

Kununurra, Austràlia

latitud: 15-46S, longitud: 128-42E, altitud: 44 m

Observació

L'informe es va fer fa 24 minuts, a les 23:00 UTC
Vent 3 kt del Nord-Est
Temperatura 28°C
Humitat 70%
Pressió 1011 hPa
Visibilitat 10 km o més

METAR: YPKU 202300Z AUTO 04003KT 9999 // NCD 28/22 Q1011 RF00.0/000.0

Hora: 07:24 (23:24 UTC)

Pronòstic

L'informe es va fer fa 5 hores i 8 minuts, a les 18:16 UTC
Pronòstic vàlid del 20 a les 20 UTC al 21 a les 08 UTC
Vent 7 kt del Nord
Visibilitat 10 km o més
sense núvols per sota de 1500 mi sense presència de cumulonimbus.

TAF: YPKU 201816Z 2020/2108 36007KT CAVOK

Observacions i pronòstics meteorològics de més de 4000 aeroports (METAR i TAF).

Les estacions disponibles són els punts grocs i vermells al mapa.

Posi el ratolí al punt desitjat per veure el nom de l'estació.

Feu clic per veure les observacions i els pronòstics meteorològics.

Per canviar el mapa: feu clic els botons verds amb una creu de color negre per apropar; al botó verd amb un guió per allunyar la imatge; o en les fletxes verdes per a mapes adjacents.


METAR-TAF: